Time;durP1;ratioP1;P1;durP2;ratioP2;P2;SDS_P1;SDS_P2;PMS_P1;PMS_P2;Temp;Humidity;BMP_temperature;BMP_pressure;BME280_temperature;BME280_humidity;BME280_pressure;Samples;Min_cycle;Max_cycle;Signal;HPM_P1;HPM_P2
2023/09/24 08:00:28;;;;;;;2.25;0.73;;;19.90;99.90;;;;;;2165663;23;20238;-73
2023/09/24 08:02:56;;;;;;;2.88;0.70;;;20.00;99.90;;;;;;4955032;28;20303;-73
2023/09/24 08:05:23;;;;;;;2.60;0.95;;;20.30;99.90;;;;;;4955575;29;20294;-74
2023/09/24 08:07:50;;;;;;;2.67;0.90;;;20.30;99.90;;;;;;4945072;29;20224;-72
2023/09/24 08:10:17;;;;;;;1.63;0.80;;;20.50;99.90;;;;;;4935798;29;20212;-72
2023/09/24 08:12:43;;;;;;;2.10;0.57;;;20.70;99.90;;;;;;4936272;29;20331;-72
2023/09/24 08:15:10;;;;;;;2.10;0.80;;;20.50;99.90;;;;;;4935576;29;20655;-72
2023/09/24 08:17:38;;;;;;;1.88;0.60;;;20.40;99.90;;;;;;4935723;29;20240;-72
2023/09/24 08:20:08;;;;;;;3.17;0.88;;;20.40;99.90;;;;;;4935430;29;20277;-72
2023/09/24 08:22:35;;;;;;;1.15;0.73;;;20.50;99.90;;;;;;4935814;29;20225;-72
2023/09/24 08:25:02;;;;;;;2.05;0.52;;;20.30;99.90;;;;;;4935693;29;20247;-72
2023/09/24 08:27:28;;;;;;;2.75;0.55;;;19.80;99.90;;;;;;4935468;29;20315;-72
2023/09/24 08:29:55;;;;;;;2.85;0.70;;;20.10;99.90;;;;;;4936027;29;20236;-72
2023/09/24 08:32:23;;;;;;;1.38;0.63;;;19.70;99.90;;;;;;4935333;29;20247;-72
2023/09/24 08:34:50;;;;;;;1.88;0.70;;;19.60;99.90;;;;;;4935770;29;20240;-72
2023/09/24 08:37:19;;;;;;;1.35;0.90;;;19.70;99.90;;;;;;4935587;29;20279;-73
2023/09/24 08:39:46;;;;;;;2.05;0.70;;;19.60;99.90;;;;;;4934763;29;20205;-72
2023/09/24 08:42:16;;;;;;;1.77;0.70;;;19.90;99.90;;;;;;4935790;29;20209;-72
2023/09/24 08:44:43;;;;;;;1.00;0.60;;;19.70;99.90;;;;;;4929945;29;20639;-76
2023/09/24 08:47:11;;;;;;;2.40;0.50;;;19.70;99.90;;;;;;4934126;29;20263;-74
2023/09/24 08:49:38;;;;;;;0.95;0.60;;;19.70;99.90;;;;;;4934511;29;20664;-73
2023/09/24 08:52:10;;;;;;;1.42;0.68;;;19.60;99.90;;;;;;4934228;29;20240;-77
2023/09/24 08:54:38;;;;;;;1.70;0.60;;;20.00;99.90;;;;;;4934038;29;20632;-71
2023/09/24 08:57:06;;;;;;;1.30;0.60;;;19.90;99.90;;;;;;4933884;29;20287;-74
2023/09/24 08:59:33;;;;;;;1.63;0.65;;;19.90;99.90;;;;;;4933739;29;20252;-74
2023/09/24 09:02:00;;;;;;;3.03;0.63;;;19.90;99.90;;;;;;4933160;29;20312;-77
2023/09/24 09:04:27;;;;;;;2.28;0.80;;;19.90;99.90;;;;;;4934265;29;20209;-73
2023/09/24 09:06:55;;;;;;;2.67;1.02;;;19.90;99.90;;;;;;4933520;29;20255;-76
2023/09/24 09:09:26;;;;;;;0.80;0.70;;;20.20;99.90;;;;;;4933907;29;20223;-74
2023/09/24 09:11:54;;;;;;;2.25;0.60;;;20.20;99.90;;;;;;4933656;29;20228;-71
2023/09/24 09:14:34;;;;;;;3.22;0.80;;;19.70;99.90;;;;;;4933426;29;20667;-73
2023/09/24 09:17:02;;;;;;;1.65;0.82;;;19.30;99.90;;;;;;4933269;29;20703;-70
2023/09/24 09:19:30;;;;;;;3.22;0.70;;;19.00;99.90;;;;;;4933721;29;20656;-72
2023/09/24 09:21:57;;;;;;;2.08;0.75;;;18.80;99.90;;;;;;4934142;29;20209;-75
2023/09/24 09:24:25;;;;;;;2.30;0.80;;;18.70;99.90;;;;;;4933625;29;20247;-75
2023/09/24 09:26:56;;;;;;;0.40;0.40;;;18.50;99.90;;;;;;4934030;29;20244;-74
2023/09/24 09:29:23;;;;;;;2.75;0.88;;;18.50;99.90;;;;;;4934363;29;20710;-73
2023/09/24 09:31:50;;;;;;;1.65;0.93;;;18.60;99.90;;;;;;4933056;29;20538;-75
2023/09/24 09:34:18;;;;;;;1.13;0.55;;;18.60;99.90;;;;;;4933867;29;20247;-72
2023/09/24 09:36:45;;;;;;;1.88;0.60;;;18.60;99.90;;;;;;4933960;29;20699;-75
2023/09/24 09:39:11;;;;;;;2.28;0.65;;;18.50;99.90;;;;;;4933983;29;20296;-74
2023/09/24 09:41:42;;;;;;;2.15;0.80;;;18.50;99.90;;;;;;4933132;29;20256;-73
2023/09/24 09:44:13;;;;;;;3.17;0.60;;;18.50;99.90;;;;;;4933145;29;20783;-74
2023/09/24 09:46:45;;;;;;;2.47;0.80;;;18.50;99.90;;;;;;4933882;29;20209;-77
2023/09/24 09:49:15;;;;;;;1.25;0.57;;;18.40;99.90;;;;;;4931590;29;20215;-75
2023/09/24 09:51:46;;;;;;;4.65;0.77;;;18.40;99.90;;;;;;4933472;29;20850;-76
2023/09/24 09:54:14;;;;;;;2.20;0.88;;;18.50;99.90;;;;;;4933608;29;20642;-72
2023/09/24 09:56:42;;;;;;;2.63;0.60;;;18.70;99.90;;;;;;4933635;29;20244;-74
2023/09/24 09:59:10;;;;;;;1.38;0.70;;;18.90;99.90;;;;;;4935823;29;20220;-72
2023/09/24 10:01:37;;;;;;;3.78;0.90;;;19.00;99.90;;;;;;4937116;29;20252;-72
2023/09/24 10:04:07;;;;;;;3.42;0.73;;;19.10;99.90;;;;;;4936759;29;20292;-73
2023/09/24 10:06:35;;;;;;;2.83;1.08;;;19.10;99.90;;;;;;4938156;29;20241;-72
2023/09/24 10:09:03;;;;;;;6.72;1.55;;;18.90;99.90;;;;;;4938787;29;20279;-73
2023/09/24 10:11:52;;;;;;;3.28;1.35;;;18.80;99.90;;;;;;4938712;29;20244;-72
2023/09/24 10:14:34;;;;;;;2.92;0.80;;;18.80;99.90;;;;;;4938492;29;20212;-72
2023/09/24 10:17:24;;;;;;;3.85;0.80;;;18.80;99.90;;;;;;4938174;29;20250;-73
2023/09/24 10:19:52;;;;;;;5.20;1.00;;;18.90;99.90;;;;;;4938339;29;20260;-72
2023/09/24 10:22:30;;;;;;;2.47;0.80;;;19.00;99.90;;;;;;4938493;29;20229;-74
2023/09/24 10:24:57;;;;;;;2.78;1.25;;;18.90;99.90;;;;;;4938289;29;20264;-75
2023/09/24 10:27:30;;;;;;;2.10;0.73;;;18.90;99.90;;;;;;4937488;29;20232;-74
2023/09/24 10:30:06;;;;;;;2.15;0.73;;;18.90;99.90;;;;;;4937378;29;20247;-73
2023/09/24 10:32:48;;;;;;;2.40;0.57;;;18.90;99.90;;;;;;4937439;29;20213;-73
2023/09/24 10:35:16;;;;;;;1.25;0.47;;;19.10;99.90;;;;;;4937394;29;20215;-74
2023/09/24 10:38:02;;;;;;;2.15;0.60;;;19.30;99.90;;;;;;4937858;29;20268;-73
2023/09/24 10:40:30;;;;;;;1.13;0.50;;;19.30;99.90;;;;;;4937698;29;20212;-72
2023/09/24 10:43:19;;;;;;;3.58;0.70;;;19.30;99.90;;;;;;4937553;29;20599;-76
2023/09/24 10:45:49;;;;;;;2.03;0.45;;;19.30;99.90;;;;;;4937470;29;20204;-73
2023/09/24 10:48:17;;;;;;;2.83;0.80;;;19.40;99.90;;;;;;4937777;29;20237;-72
2023/09/24 10:50:44;;;;;;;4.07;0.80;;;19.50;99.90;;;;;;4937334;29;20205;-72
2023/09/24 10:53:12;;;;;;;2.88;0.68;;;19.40;99.90;;;;;;4937660;29;20216;-73
2023/09/24 10:55:43;;;;;;;3.38;0.65;;;19.30;99.90;;;;;;4937503;29;20232;-72
2023/09/24 10:58:13;;;;;;;2.20;0.52;;;19.30;99.90;;;;;;4936626;29;20244;-72
2023/09/24 11:00:42;;;;;;;2.00;0.70;;;19.40;99.90;;;;;;4936616;29;20694;-73
2023/09/24 11:03:13;;;;;;;1.33;0.50;;;19.60;99.90;;;;;;4936116;29;20299;-72
2023/09/24 11:05:48;;;;;;;2.53;0.75;;;19.60;99.90;;;;;;4937491;29;20212;-75
2023/09/24 11:08:16;;;;;;;3.97;0.70;;;19.50;99.90;;;;;;4936701;29;20722;-72
2023/09/24 11:10:48;;;;;;;2.13;0.52;;;19.60;99.90;;;;;;4936500;29;20264;-72
2023/09/24 11:13:15;;;;;;;4.53;0.93;;;19.70;99.90;;;;;;4937761;29;20597;-74
2023/09/24 11:15:43;;;;;;;2.47;0.57;;;19.60;99.90;;;;;;4932889;29;20228;-76
2023/09/24 11:18:13;;;;;;;2.35;0.70;;;19.50;99.90;;;;;;4917242;29;20252;-74
2023/09/24 11:20:49;;;;;;;2.35;0.52;;;19.40;99.90;;;;;;4935404;29;20215;-73
2023/09/24 11:23:16;;;;;;;1.58;0.40;;;19.50;99.90;;;;;;4937007;29;20232;-72
2023/09/24 11:25:48;;;;;;;1.67;0.68;;;19.40;99.90;;;;;;4936434;29;20315;-73
2023/09/24 11:28:16;;;;;;;1.20;0.68;;;19.40;99.90;;;;;;4936710;29;20264;-72
2023/09/24 11:30:45;;;;;;;3.35;0.80;;;19.40;99.90;;;;;;4936585;29;20631;-72
2023/09/24 11:33:16;;;;;;;2.22;0.60;;;19.50;99.90;;;;;;4936350;29;20284;-72
2023/09/24 11:35:43;;;;;;;1.60;0.50;;;19.50;99.90;;;;;;4936424;29;20213;-72
2023/09/24 11:38:11;;;;;;;3.72;1.10;;;19.30;99.90;;;;;;4936429;29;20263;-75
2023/09/24 11:40:39;;;;;;;1.52;0.82;;;19.30;99.90;;;;;;4936717;29;20239;-73
2023/09/24 11:43:08;;;;;;;4.97;1.55;;;19.40;99.90;;;;;;4936530;29;20572;-72
2023/09/24 11:45:37;;;;;;;3.53;1.33;;;19.50;99.90;;;;;;4936621;29;20240;-72
2023/09/24 11:48:04;;;;;;;2.85;1.48;;;19.40;99.90;;;;;;4936183;29;20311;-75
2023/09/24 11:50:32;;;;;;;3.05;0.98;;;19.50;99.90;;;;;;4935847;29;20250;-73
2023/09/24 11:53:01;;;;;;;2.28;0.90;;;19.50;99.90;;;;;;4935746;29;20248;-72
2023/09/24 11:55:28;;;;;;;2.40;0.80;;;19.60;99.90;;;;;;4935806;29;20213;-72
2023/09/24 11:57:54;;;;;;;1.52;0.70;;;19.70;99.90;;;;;;4935982;29;20331;-71
2023/09/24 12:00:22;;;;;;;3.72;1.10;;;19.70;99.90;;;;;;4936004;29;20255;-74
2023/09/24 12:02:49;;;;;;;3.03;1.25;;;19.60;99.90;;;;;;4935906;29;20647;-73
2023/09/24 12:05:16;;;;;;;3.20;0.90;;;19.60;99.90;;;;;;4935810;29;20209;-74
2023/09/24 12:07:45;;;;;;;2.13;0.65;;;19.80;99.90;;;;;;4935741;29;20225;-73
2023/09/24 12:10:12;;;;;;;3.20;0.90;;;19.80;99.90;;;;;;4935591;29;20600;-74
2023/09/24 12:12:38;;;;;;;2.42;0.88;;;19.80;99.90;;;;;;4936340;29;20224;-73
2023/09/24 12:15:07;;;;;;;2.50;0.80;;;19.80;99.90;;;;;;4936043;29;20232;-74
2023/09/24 12:17:34;;;;;;;1.25;0.60;;;19.90;99.90;;;;;;4935795;29;20596;-75
2023/09/24 12:20:00;;;;;;;1.30;0.70;;;20.00;99.90;;;;;;4935641;29;20219;-75
2023/09/24 12:22:27;;;;;;;1.55;0.60;;;20.10;99.90;;;;;;4935415;29;20244;-74
2023/09/24 12:24:57;;;;;;;1.73;0.70;;;20.20;99.90;;;;;;4936018;29;20251;-75
2023/09/24 12:27:23;;;;;;;1.55;0.98;;;20.20;99.90;;;;;;4935591;29;20308;-75
2023/09/24 12:29:50;;;;;;;1.52;0.70;;;20.10;99.90;;;;;;4935556;29;20240;-75
2023/09/24 12:32:17;;;;;;;1.75;0.63;;;20.10;99.90;;;;;;4935488;29;20296;-75
2023/09/24 12:34:44;;;;;;;1.83;0.70;;;20.20;99.90;;;;;;4935866;29;20251;-74
2023/09/24 12:37:11;;;;;;;1.40;0.70;;;20.30;99.90;;;;;;4935465;29;20272;-74
2023/09/24 12:39:38;;;;;;;1.63;0.60;;;20.20;99.90;;;;;;4935869;29;20354;-75
2023/09/24 12:42:07;;;;;;;2.25;0.50;;;20.10;99.90;;;;;;4935896;29;20223;-75
2023/09/24 12:44:34;;;;;;;2.38;0.80;;;20.10;99.90;;;;;;4935741;29;20264;-74
2023/09/24 12:47:00;;;;;;;1.33;0.75;;;20.10;99.90;;;;;;4935529;29;20323;-75
2023/09/24 12:49:27;;;;;;;0.90;0.40;;;20.00;99.90;;;;;;4935467;29;20236;-75
2023/09/24 12:51:54;;;;;;;0.90;0.50;;;19.90;99.90;;;;;;4935569;29;20719;-75
2023/09/24 12:54:23;;;;;;;2.25;0.57;;;20.00;99.90;;;;;;4935469;29;20632;-75
2023/09/24 12:56:50;;;;;;;2.10;0.70;;;20.10;99.90;;;;;;4935613;29;20600;-75
2023/09/24 12:59:18;;;;;;;1.58;0.90;;;20.10;99.90;;;;;;4935643;29;20244;-75
2023/09/24 13:01:46;;;;;;;1.42;0.57;;;20.10;99.90;;;;;;4935004;29;20692;-75
2023/09/24 13:04:13;;;;;;;1.98;0.80;;;20.10;99.90;;;;;;4935660;29;20204;-75
2023/09/24 13:06:44;;;;;;;1.02;0.60;;;20.20;99.90;;;;;;4935540;29;20244;-75
2023/09/24 13:09:16;;;;;;;0.90;0.40;;;20.30;99.90;;;;;;4935514;29;20656;-75
2023/09/24 13:11:44;;;;;;;0.93;0.50;;;20.30;99.90;;;;;;4935427;29;20241;-75
2023/09/24 13:14:12;;;;;;;0.60;0.40;;;20.30;99.90;;;;;;4934941;29;20244;-75
2023/09/24 13:16:42;;;;;;;0.75;0.40;;;20.30;99.90;;;;;;4934616;29;20706;-75
2023/09/24 13:19:11;;;;;;;0.88;0.50;;;20.20;99.90;;;;;;4935006;29;20640;-75
2023/09/24 13:21:38;;;;;;;1.98;0.50;;;20.30;99.90;;;;;;4935582;29;20222;-75
2023/09/24 13:24:06;;;;;;;1.58;0.32;;;20.30;99.90;;;;;;4935385;29;20247;-75
2023/09/24 13:26:33;;;;;;;1.13;0.70;;;20.30;99.90;;;;;;4935443;29;20252;-75
2023/09/24 13:29:00;;;;;;;2.20;0.60;;;20.30;99.90;;;;;;4935013;29;20271;-75
2023/09/24 13:31:27;;;;;;;0.60;0.40;;;20.40;99.90;;;;;;4934721;29;20637;-75
2023/09/24 13:33:55;;;;;;;1.48;0.57;;;20.40;99.90;;;;;;4938313;29;20295;-74
2023/09/24 13:36:22;;;;;;;1.52;0.70;;;20.20;99.90;;;;;;4939055;29;20248;-75
2023/09/24 13:38:49;;;;;;;3.40;0.60;;;20.20;99.90;;;;;;4938701;29;20737;-74
2023/09/24 13:41:16;;;;;;;0.95;0.50;;;20.30;99.90;;;;;;4938979;29;20212;-75
2023/09/24 13:43:43;;;;;;;0.75;0.45;;;20.30;99.90;;;;;;4938852;29;20240;-75
2023/09/24 13:46:10;;;;;;;0.80;0.50;;;20.10;99.90;;;;;;4938736;29;20324;-75
2023/09/24 13:48:37;;;;;;;1.00;0.45;;;20.20;99.90;;;;;;4938380;29;20256;-75
2023/09/24 13:51:05;;;;;;;1.15;0.43;;;20.10;99.90;;;;;;4938599;29;20683;-75
2023/09/24 13:53:32;;;;;;;1.85;0.77;;;20.20;99.90;;;;;;4938420;29;20213;-74
2023/09/24 13:55:59;;;;;;;0.70;0.40;;;20.20;99.90;;;;;;4938641;29;20255;-75
2023/09/24 13:58:26;;;;;;;1.17;0.65;;;20.30;99.90;;;;;;4938965;29;20276;-75
2023/09/24 14:00:53;;;;;;;1.17;0.40;;;20.30;99.90;;;;;;4938520;29;20624;-75
2023/09/24 14:03:20;;;;;;;0.80;0.40;;;20.40;99.90;;;;;;4938279;29;20205;-75
2023/09/24 14:05:47;;;;;;;1.15;0.60;;;20.40;99.90;;;;;;4938569;29;20212;-75
2023/09/24 14:13:46;;;;;;;0.60;0.40;;;20.30;99.90;;;;;;4938284;29;20579;-74
2023/09/24 14:16:14;;;;;;;0.80;0.40;;;20.20;99.90;;;;;;4938372;29;20575;-75
2023/09/24 14:18:40;;;;;;;1.00;0.50;;;20.30;99.90;;;;;;4937980;29;20331;-74
2023/09/24 14:21:11;;;;;;;2.60;0.50;;;20.20;99.90;;;;;;4938337;29;20251;-75
2023/09/24 14:23:40;;;;;;;0.68;0.47;;;20.20;99.90;;;;;;4938415;29;20667;-75
2023/09/24 14:26:08;;;;;;;1.00;0.50;;;20.30;99.90;;;;;;4938278;29;20205;-75
2023/09/24 14:28:35;;;;;;;1.30;0.50;;;20.40;99.90;;;;;;4938054;29;20229;-76
2023/09/24 14:31:06;;;;;;;0.70;0.43;;;20.40;99.90;;;;;;4938317;29;20632;-75
2023/09/24 14:33:33;;;;;;;0.85;0.50;;;20.40;99.90;;;;;;4937826;29;20208;-75
2023/09/24 14:36:00;;;;;;;1.35;0.55;;;20.50;99.90;;;;;;4938000;29;20259;-75
2023/09/24 14:38:27;;;;;;;1.08;0.40;;;20.40;99.90;;;;;;4937763;29;20715;-75
2023/09/24 14:40:56;;;;;;;0.98;0.45;;;20.50;99.90;;;;;;4937791;29;20643;-75
2023/09/24 14:43:24;;;;;;;1.33;0.70;;;20.50;99.90;;;;;;4938060;29;20237;-75
2023/09/24 14:45:58;;;;;;;1.38;0.60;;;20.50;99.90;;;;;;4937275;29;20244;-75
2023/09/24 14:48:25;;;;;;;1.42;0.75;;;20.60;99.90;;;;;;4937573;29;20273;-75
2023/09/24 14:50:54;;;;;;;1.25;0.55;;;20.60;99.90;;;;;;4938275;29;20205;-75
2023/09/24 14:53:21;;;;;;;1.13;0.50;;;20.60;99.90;;;;;;4937674;29;20213;-74
2023/09/24 14:55:49;;;;;;;2.05;0.65;;;20.60;99.90;;;;;;4937600;29;20251;-75
2023/09/24 14:58:18;;;;;;;0.75;0.45;;;20.60;99.90;;;;;;4937475;29;20272;-75
2023/09/24 15:00:45;;;;;;;1.58;0.50;;;20.60;99.90;;;;;;4937013;29;20304;-75
2023/09/24 15:03:12;;;;;;;2.30;0.50;;;20.40;99.90;;;;;;4937116;29;20209;-74
2023/09/24 15:05:39;;;;;;;1.13;0.57;;;20.40;99.90;;;;;;4937251;29;20216;-75
2023/09/24 15:08:08;;;;;;;1.42;0.65;;;20.30;99.90;;;;;;4937267;29;20267;-75
2023/09/24 15:10:38;;;;;;;0.98;0.55;;;20.20;99.90;;;;;;4937516;29;20213;-75
2023/09/24 15:13:05;;;;;;;1.75;0.43;;;20.20;99.90;;;;;;4937290;29;20291;-75
2023/09/24 15:15:34;;;;;;;0.85;0.47;;;20.20;99.90;;;;;;4937003;29;20216;-75
2023/09/24 15:18:01;;;;;;;0.75;0.50;;;20.10;99.90;;;;;;4937171;29;20287;-75
2023/09/24 15:20:28;;;;;;;1.52;0.55;;;20.10;99.90;;;;;;4937093;29;20259;-75
2023/09/24 15:22:55;;;;;;;1.10;0.50;;;20.00;99.90;;;;;;4937295;29;20213;-74
2023/09/24 15:25:22;;;;;;;1.55;0.60;;;20.00;99.90;;;;;;4937283;29;20247;-75
2023/09/24 15:27:49;;;;;;;0.90;0.40;;;19.90;99.90;;;;;;4936268;29;20236;-74
2023/09/24 15:30:16;;;;;;;3.17;0.60;;;19.90;99.90;;;;;;4937697;29;20280;-74
2023/09/24 15:32:45;;;;;;;2.55;0.60;;;19.90;99.90;;;;;;4936633;29;20239;-75
2023/09/24 15:35:13;;;;;;;0.68;0.45;;;19.80;99.90;;;;;;4936791;29;20213;-75
2023/09/24 15:37:40;;;;;;;0.60;0.45;;;19.90;99.90;;;;;;4936853;29;20231;-75
2023/09/24 15:40:08;;;;;;;0.77;0.47;;;19.90;99.90;;;;;;4936747;29;20235;-74
2023/09/24 15:42:35;;;;;;;1.20;0.80;;;19.90;99.90;;;;;;4936913;29;20501;-75
2023/09/24 15:45:04;;;;;;;1.65;0.70;;;19.80;99.90;;;;;;4936370;29;20215;-75
2023/09/24 15:47:31;;;;;;;1.10;0.63;;;19.80;99.90;;;;;;4936359;29;20335;-75
2023/09/24 15:49:59;;;;;;;0.95;0.50;;;19.80;99.90;;;;;;4936756;29;20248;-75
2023/09/24 15:52:26;;;;;;;0.70;0.50;;;19.80;99.90;;;;;;4936575;29;20719;-74
2023/09/24 15:54:53;;;;;;;3.38;0.88;;;19.70;99.90;;;;;;4936306;29;20251;-75
2023/09/24 15:57:20;;;;;;;2.13;0.85;;;19.70;99.90;;;;;;4935764;29;20649;-75
2023/09/24 15:59:47;;;;;;;1.42;0.52;;;19.60;99.90;;;;;;4936584;29;20243;-75
2023/09/24 16:02:14;;;;;;;1.00;0.50;;;19.50;99.90;;;;;;4936465;29;20568;-75
2023/09/24 16:04:41;;;;;;;2.35;0.70;;;19.60;99.90;;;;;;4936457;29;20259;-75
2023/09/24 16:07:09;;;;;;;0.82;0.50;;;19.60;99.90;;;;;;4936368;29;20264;-75
2023/09/24 16:09:36;;;;;;;0.98;0.60;;;19.60;99.90;;;;;;4938314;29;20564;-75
2023/09/24 16:12:03;;;;;;;1.40;0.63;;;19.50;99.90;;;;;;4959848;28;20196;-75
2023/09/24 16:14:31;;;;;;;1.77;1.00;;;19.40;99.90;;;;;;4960904;28;20204;-75
2023/09/24 16:16:58;;;;;;;2.35;0.50;;;19.40;99.90;;;;;;4960588;28;20280;-74
2023/09/24 16:19:25;;;;;;;0.65;0.40;;;19.40;99.90;;;;;;4960811;28;20220;-75
2023/09/24 16:21:52;;;;;;;0.75;0.50;;;19.40;99.90;;;;;;4946794;28;20251;-75
2023/09/24 16:24:21;;;;;;;0.73;0.45;;;19.30;99.90;;;;;;4936347;29;20244;-75
2023/09/24 16:26:48;;;;;;;1.35;0.50;;;19.30;99.90;;;;;;4936272;29;20635;-75
2023/09/24 16:29:16;;;;;;;1.50;0.55;;;19.30;99.90;;;;;;4936032;29;20291;-74
2023/09/24 16:31:43;;;;;;;1.25;0.50;;;19.20;99.90;;;;;;4935696;29;20209;-75
2023/09/24 16:34:10;;;;;;;0.65;0.45;;;19.30;99.90;;;;;;4936097;29;20246;-76
2023/09/24 16:36:37;;;;;;;1.50;0.70;;;19.20;99.90;;;;;;4935942;29;20247;-74
2023/09/24 16:39:05;;;;;;;0.77;0.52;;;19.20;99.90;;;;;;4935625;29;20730;-75
2023/09/24 16:41:33;;;;;;;1.45;0.40;;;19.00;99.90;;;;;;4935472;29;20240;-75
2023/09/24 16:44:00;;;;;;;1.13;0.50;;;19.10;99.90;;;;;;4935967;29;20623;-76
2023/09/24 16:46:27;;;;;;;0.85;0.50;;;19.20;99.90;;;;;;4935209;29;20299;-75
2023/09/24 16:48:54;;;;;;;2.05;0.68;;;19.20;99.90;;;;;;4935660;29;20726;-75
2023/09/24 16:51:21;;;;;;;1.52;0.85;;;19.10;99.90;;;;;;4935581;29;20584;-74
2023/09/24 16:53:48;;;;;;;1.38;0.47;;;19.10;99.90;;;;;;4935890;29;20254;-75
2023/09/24 16:56:15;;;;;;;1.10;0.50;;;19.00;99.90;;;;;;4935498;29;20213;-75
2023/09/24 16:58:43;;;;;;;2.20;0.70;;;18.90;99.90;;;;;;4935575;29;20717;-74
2023/09/24 17:01:16;;;;;;;0.98;0.50;;;18.90;99.90;;;;;;4935434;29;20315;-75
2023/09/24 17:03:44;;;;;;;1.40;0.57;;;18.90;99.90;;;;;;4935479;29;20213;-74
2023/09/24 17:06:11;;;;;;;0.75;0.50;;;18.80;99.90;;;;;;4935423;29;20216;-75
2023/09/24 17:08:38;;;;;;;0.98;0.57;;;18.60;99.90;;;;;;4935612;29;20260;-75
2023/09/24 17:11:05;;;;;;;0.80;0.50;;;18.50;99.90;;;;;;4935653;29;20211;-75
2023/09/24 17:13:32;;;;;;;1.50;0.70;;;18.40;99.90;;;;;;4935726;29;20247;-76
2023/09/24 17:16:09;;;;;;;1.73;0.57;;;18.30;99.90;;;;;;4935464;29;20243;-74
2023/09/24 17:18:36;;;;;;;1.20;0.70;;;18.20;99.90;;;;;;4935396;29;20244;-75
2023/09/24 17:21:03;;;;;;;1.48;0.60;;;18.10;99.90;;;;;;4935211;29;20291;-75
2023/09/24 17:23:31;;;;;;;2.53;0.75;;;18.10;99.90;;;;;;4935714;29;20247;-75
2023/09/24 17:26:08;;;;;;;1.30;0.77;;;18.00;99.90;;;;;;4935586;29;20212;-75
2023/09/24 17:28:35;;;;;;;1.80;0.80;;;17.90;99.90;;;;;;4935354;29;20236;-76
2023/09/24 17:31:04;;;;;;;3.88;0.80;;;17.70;99.90;;;;;;4935564;29;20244;-76
2023/09/24 17:33:33;;;;;;;1.42;0.70;;;17.70;99.90;;;;;;4935504;29;20215;-75
2023/09/24 17:36:00;;;;;;;1.48;0.90;;;17.50;99.90;;;;;;4935383;29;20326;-75
2023/09/24 17:38:27;;;;;;;2.80;0.70;;;17.50;99.90;;;;;;4934999;29;20272;-75
2023/09/24 17:40:54;;;;;;;2.20;0.80;;;17.40;99.90;;;;;;4935604;29;20255;-75
2023/09/24 17:43:21;;;;;;;3.20;0.80;;;17.40;99.90;;;;;;4935306;29;20257;-74
2023/09/24 17:45:58;;;;;;;1.92;0.70;;;17.20;99.90;;;;;;4935063;29;20319;-75
2023/09/24 17:48:26;;;;;;;1.13;0.65;;;17.10;99.90;;;;;;4935145;29;20271;-75
2023/09/24 17:50:59;;;;;;;1.13;0.80;;;16.90;99.90;;;;;;4935096;29;20209;-74
2023/09/24 17:53:26;;;;;;;1.73;0.97;;;16.90;99.90;;;;;;4935317;29;20714;-75
2023/09/24 17:55:54;;;;;;;1.63;0.70;;;16.80;99.90;;;;;;4935136;29;20256;-75
2023/09/24 17:58:21;;;;;;;1.83;0.80;;;16.80;99.90;;;;;;4935164;29;20291;-75
2023/09/24 18:00:48;;;;;;;2.13;0.80;;;16.70;99.90;;;;;;4935200;29;20261;-75
2023/09/24 18:03:18;;;;;;;2.60;0.83;;;16.70;99.90;;;;;;4934989;29;20256;-74
2023/09/24 18:05:45;;;;;;;1.73;0.87;;;16.60;99.90;;;;;;4935020;29;20212;-74
2023/09/24 18:08:14;;;;;;;1.83;0.70;;;16.60;99.90;;;;;;4934692;29;20252;-75
2023/09/24 18:10:40;;;;;;;1.30;0.83;;;16.50;99.90;;;;;;4935067;29;20213;-75
2023/09/24 18:13:08;;;;;;;2.83;0.80;;;16.40;99.90;;;;;;4934833;29;20637;-75
2023/09/24 18:15:34;;;;;;;1.47;0.67;;;16.30;99.90;;;;;;4935151;29;20213;-75
2023/09/24 18:18:01;;;;;;;1.20;0.70;;;16.20;99.90;;;;;;4934814;29;20724;-74
2023/09/24 18:20:28;;;;;;;2.50;1.07;;;16.20;99.90;;;;;;4936839;29;20295;-75
2023/09/24 18:22:55;;;;;;;1.63;0.80;;;16.20;99.90;;;;;;4938259;29;20620;-75
2023/09/24 18:25:24;;;;;;;0.80;0.70;;;16.10;99.90;;;;;;4938187;29;20299;-75
2023/09/24 18:27:50;;;;;;;1.77;0.77;;;15.90;99.90;;;;;;4938440;29;20236;-75
2023/09/24 18:30:18;;;;;;;1.23;0.67;;;15.90;99.90;;;;;;4938129;29;20647;-75
2023/09/24 18:32:44;;;;;;;1.63;0.87;;;15.80;99.90;;;;;;4937975;29;20299;-75
2023/09/24 18:35:11;;;;;;;1.67;0.80;;;15.90;99.90;;;;;;4938559;29;20212;-75
2023/09/24 18:37:38;;;;;;;2.07;1.00;;;15.90;99.90;;;;;;4937780;29;20315;-76
2023/09/24 18:40:06;;;;;;;3.10;1.43;;;15.90;99.90;;;;;;4938056;29;20275;-75
2023/09/24 18:42:37;;;;;;;1.10;0.70;;;15.90;99.90;;;;;;4938202;29;20209;-77
2023/09/24 18:45:05;;;;;;;2.30;0.70;;;15.90;99.90;;;;;;4938093;29;20241;-75
2023/09/24 18:47:32;;;;;;;1.30;0.80;;;15.80;99.90;;;;;;4937755;29;20265;-74
2023/09/24 18:49:59;;;;;;;0.90;0.60;;;15.80;99.90;;;;;;4937806;29;20209;-74
2023/09/24 18:52:26;;;;;;;2.00;0.83;;;15.80;99.90;;;;;;4938094;29;20304;-75
2023/09/24 18:54:53;;;;;;;1.63;0.70;;;15.80;99.90;;;;;;4938004;29;20248;-74
2023/09/24 18:57:20;;;;;;;4.10;0.80;;;15.70;99.90;;;;;;4937544;29;20719;-75
2023/09/24 18:59:48;;;;;;;2.90;0.90;;;15.60;99.90;;;;;;4937404;29;20272;-74
2023/09/24 19:02:15;;;;;;;1.93;0.90;;;15.40;99.90;;;;;;4925588;29;20269;-74
2023/09/24 19:04:42;;;;;;;1.50;0.70;;;15.30;99.90;;;;;;4924876;29;20303;-75
2023/09/24 19:07:11;;;;;;;2.77;1.00;;;15.30;99.90;;;;;;4927166;29;20714;-74
2023/09/24 19:09:38;;;;;;;2.60;0.97;;;15.30;99.90;;;;;;4933323;29;20209;-75
2023/09/24 19:12:06;;;;;;;1.23;0.70;;;15.20;99.90;;;;;;4925191;29;20205;-75
2023/09/24 19:14:33;;;;;;;2.10;1.03;;;15.20;99.90;;;;;;4924982;29;20237;-74
2023/09/24 19:17:01;;;;;;;1.43;0.80;;;15.10;99.90;;;;;;4927904;29;20256;-74
2023/09/24 19:19:28;;;;;;;1.37;0.80;;;15.00;99.90;;;;;;4923121;29;20260;-74
2023/09/24 19:21:55;;;;;;;2.17;0.90;;;14.90;99.90;;;;;;4928404;29;20291;-74
2023/09/24 19:24:22;;;;;;;2.87;0.70;;;14.80;99.90;;;;;;4933416;29;20665;-74
2023/09/24 19:26:52;;;;;;;1.50;0.80;;;14.80;99.90;;;;;;4936244;29;20247;-75
2023/09/24 19:29:19;;;;;;;1.83;0.70;;;14.70;99.90;;;;;;4932048;29;20730;-75
2023/09/24 19:31:47;;;;;;;2.13;0.70;;;14.60;99.90;;;;;;4933337;29;20691;-75
2023/09/24 19:34:15;;;;;;;2.80;0.77;;;14.50;99.90;;;;;;4930420;29;20743;-76
2023/09/24 19:36:42;;;;;;;1.83;0.90;;;14.40;99.90;;;;;;4923798;29;20303;-76
2023/09/24 19:39:09;;;;;;;5.60;1.13;;;14.40;99.90;;;;;;4929709;29;20209;-76
2023/09/24 19:41:36;;;;;;;3.97;0.87;;;14.30;99.90;;;;;;4932202;29;20213;-74
2023/09/24 19:44:05;;;;;;;2.57;1.10;;;14.20;99.90;;;;;;4925508;29;20252;-75
2023/09/24 19:46:32;;;;;;;4.60;1.00;;;14.30;99.90;;;;;;4932558;29;20205;-74
2023/09/24 19:48:59;;;;;;;1.53;0.90;;;14.20;99.90;;;;;;4922682;29;20253;-75
2023/09/24 19:51:27;;;;;;;1.90;0.83;;;14.10;99.90;;;;;;4933811;29;20256;-74
2023/09/24 19:53:54;;;;;;;1.93;0.67;;;14.10;99.90;;;;;;4927545;29;20232;-74
2023/09/24 19:56:21;;;;;;;2.27;0.90;;;14.10;99.90;;;;;;4932486;29;20217;-75
2023/09/24 19:58:48;;;;;;;2.60;1.00;;;14.00;99.90;;;;;;4928170;29;20241;-74
2023/09/24 20:01:16;;;;;;;2.27;1.20;;;13.90;99.90;;;;;;4928396;29;20722;-74
2023/09/24 20:03:43;;;;;;;1.60;0.93;;;13.90;99.90;;;;;;4922717;29;20575;-74
2023/09/24 20:06:11;;;;;;;3.70;1.10;;;13.90;99.90;;;;;;4932765;29;20596;-74
2023/09/24 20:08:44;;;;;;;1.97;1.30;;;13.70;99.90;;;;;;4925149;29;20298;-74
2023/09/24 20:11:12;;;;;;;1.90;1.10;;;13.60;99.90;;;;;;4920203;29;20221;-74
2023/09/24 20:13:42;;;;;;;2.63;1.10;;;13.60;99.90;;;;;;4929294;29;20273;-74
2023/09/24 20:16:09;;;;;;;2.70;1.10;;;13.60;99.90;;;;;;4931516;29;20297;-74
2023/09/24 20:18:36;;;;;;;3.60;1.40;;;13.60;99.90;;;;;;4928883;29;20233;-74
2023/09/24 20:21:03;;;;;;;1.83;1.23;;;13.60;99.90;;;;;;4927985;29;20324;-73
2023/09/24 20:23:32;;;;;;;3.37;1.33;;;13.60;99.90;;;;;;4929642;29;20301;-74
2023/09/24 20:26:00;;;;;;;2.17;1.33;;;13.60;99.90;;;;;;4930309;29;20672;-75
2023/09/24 20:28:27;;;;;;;1.53;1.00;;;13.60;99.90;;;;;;4932009;29;20252;-75
2023/09/24 20:30:58;;;;;;;2.20;1.20;;;13.60;99.90;;;;;;4931156;29;20240;-75
2023/09/24 20:33:25;;;;;;;2.57;1.70;;;13.50;99.90;;;;;;4930522;29;20205;-75
2023/09/24 20:35:52;;;;;;;3.10;1.30;;;13.40;99.90;;;;;;4926922;29;20780;-75
2023/09/24 20:38:19;;;;;;;3.00;1.70;;;13.20;99.90;;;;;;4929972;29;20316;-75
2023/09/24 20:40:46;;;;;;;3.60;1.80;;;13.20;99.90;;;;;;4930776;29;20295;-75
2023/09/24 20:43:14;;;;;;;2.30;1.33;;;13.10;99.90;;;;;;4932823;29;20221;-75
2023/09/24 20:45:53;;;;;;;2.13;1.20;;;13.10;99.90;;;;;;4929687;29;20213;-75
2023/09/24 20:48:20;;;;;;;2.57;1.23;;;13.10;99.90;;;;;;4932008;29;20311;-75
2023/09/24 20:50:47;;;;;;;2.90;1.47;;;13.10;99.90;;;;;;4928515;29;20243;-76
2023/09/24 20:53:13;;;;;;;2.97;1.40;;;13.10;99.90;;;;;;4931228;29;20237;-75
2023/09/24 20:55:41;;;;;;;2.20;1.13;;;13.10;99.90;;;;;;4928187;29;20297;-75
2023/09/24 20:58:08;;;;;;;3.27;1.33;;;13.20;99.90;;;;;;4931832;29;20220;-74